createdAt,value
2023-03-15T00:01:47.704Z,0.46
2023-03-15T00:04:14.259Z,0.44
2023-03-15T00:06:40.932Z,0.48
2023-03-15T00:09:07.993Z,0.54
2023-03-15T00:11:34.857Z,0.60
2023-03-15T00:14:02.444Z,0.43
2023-03-15T00:16:29.355Z,0.49
2023-03-15T00:18:56.630Z,0.51
2023-03-15T00:21:24.006Z,0.51
2023-03-15T00:23:50.834Z,0.48
2023-03-15T00:26:17.495Z,0.48
2023-03-15T00:28:44.723Z,0.45
2023-03-15T00:31:20.410Z,0.43
2023-03-15T00:33:48.630Z,0.35
2023-03-15T00:36:16.035Z,0.34
2023-03-15T00:38:45.852Z,0.29
2023-03-15T00:41:14.317Z,0.27
2023-03-15T00:43:41.345Z,0.31
2023-03-15T00:46:08.794Z,0.31
2023-03-15T00:48:35.739Z,0.31
2023-03-15T00:51:04.391Z,0.39
2023-03-15T00:53:31.423Z,0.42
2023-03-15T00:55:58.274Z,0.56
2023-03-15T00:58:27.484Z,0.69
2023-03-15T01:00:54.014Z,0.88
2023-03-15T01:03:21.230Z,0.89
2023-03-15T01:05:47.723Z,1.02
2023-03-15T01:08:14.158Z,1.00
2023-03-15T01:10:41.047Z,1.05
2023-03-15T01:13:07.734Z,1.05
2023-03-15T01:15:34.161Z,1.03
2023-03-15T01:18:00.756Z,1.11
2023-03-15T01:20:27.130Z,1.13
2023-03-15T01:22:53.664Z,1.19
2023-03-15T01:25:20.081Z,1.15
2023-03-15T01:27:46.722Z,1.17
2023-03-15T01:30:13.235Z,1.15
2023-03-15T01:32:41.207Z,1.19
2023-03-15T01:35:08.094Z,1.21
2023-03-15T01:37:34.733Z,1.27
2023-03-15T01:40:01.827Z,1.30
2023-03-15T01:42:28.394Z,1.28
2023-03-15T01:44:57.878Z,1.26
2023-03-15T01:47:27.207Z,1.33
2023-03-15T01:50:09.557Z,1.35
2023-03-15T01:52:40.408Z,1.41
2023-03-15T01:55:12.940Z,1.41
2023-03-15T01:57:44.944Z,1.38
2023-03-15T02:00:18.378Z,1.43
2023-03-15T02:02:51.869Z,1.44
2023-03-15T02:05:21.932Z,1.48
2023-03-15T02:07:54.645Z,1.48
2023-03-15T02:10:33.647Z,1.48
2023-03-15T02:13:01.175Z,1.50
2023-03-15T02:15:28.957Z,1.51
2023-03-15T02:17:55.721Z,1.54
2023-03-15T02:20:41.182Z,1.54
2023-03-15T02:23:22.633Z,1.59
2023-03-15T02:25:53.774Z,1.57
2023-03-15T02:28:20.774Z,1.55
2023-03-15T02:30:49.619Z,1.62
2023-03-15T02:33:25.637Z,1.61
2023-03-15T02:35:52.770Z,1.55
2023-03-15T02:38:19.832Z,1.50
2023-03-15T02:40:46.732Z,1.44
2023-03-15T02:43:23.425Z,1.40
2023-03-15T02:45:50.538Z,1.42
2023-03-15T02:48:18.527Z,1.44
2023-03-15T02:50:44.949Z,1.46
2023-03-15T02:53:12.275Z,1.46
2023-03-15T02:55:39.332Z,1.47
2023-03-15T02:58:05.988Z,1.48
2023-03-15T03:00:32.923Z,1.48
2023-03-15T03:02:59.658Z,1.52
2023-03-15T03:05:26.559Z,1.48
2023-03-15T03:07:53.140Z,1.48
2023-03-15T03:10:21.053Z,1.43
2023-03-15T03:12:47.564Z,1.45
2023-03-15T03:15:13.972Z,1.49
2023-03-15T03:17:43.047Z,1.48
2023-03-15T03:20:13.591Z,1.50
2023-03-15T03:22:42.019Z,1.34
2023-03-15T03:25:12.610Z,1.34
2023-03-15T03:27:40.416Z,1.26
2023-03-15T03:30:10.190Z,1.33
2023-03-15T03:32:37.060Z,1.29
2023-03-15T03:35:03.774Z,1.23
2023-03-15T03:37:31.475Z,1.20
2023-03-15T03:39:58.422Z,1.14
2023-03-15T03:42:25.187Z,1.17
2023-03-15T03:44:53.985Z,1.17
2023-03-15T03:47:20.805Z,1.15
2023-03-15T03:49:47.421Z,1.16
2023-03-15T03:52:14.005Z,1.15
2023-03-15T03:54:43.068Z,1.08
2023-03-15T03:57:11.549Z,1.10
2023-03-15T03:59:38.173Z,1.01
2023-03-15T04:02:05.068Z,0.93
2023-03-15T04:04:31.540Z,0.86
2023-03-15T04:06:58.231Z,0.82
2023-03-15T04:09:25.206Z,0.75
2023-03-15T04:11:51.758Z,0.70
2023-03-15T04:14:18.294Z,0.68
2023-03-15T04:16:44.705Z,0.61
2023-03-15T04:19:12.733Z,0.63
2023-03-15T04:21:40.374Z,0.62
2023-03-15T04:24:07.384Z,0.66
2023-03-15T04:26:34.440Z,0.67
2023-03-15T04:29:00.901Z,0.68
2023-03-15T04:31:27.421Z,0.71
2023-03-15T04:33:55.436Z,0.73
2023-03-15T04:36:25.001Z,0.79
2023-03-15T04:38:51.574Z,0.72
2023-03-15T04:41:18.681Z,0.75
2023-03-15T04:43:45.217Z,0.69
2023-03-15T04:46:12.304Z,0.73
2023-03-15T04:48:38.799Z,0.90
2023-03-15T04:51:06.021Z,0.84
2023-03-15T04:53:32.948Z,0.90
2023-03-15T04:55:59.691Z,0.87
2023-03-15T04:58:26.097Z,0.92
2023-03-15T05:00:53.909Z,0.93
2023-03-15T05:03:20.769Z,0.93
2023-03-15T05:05:48.500Z,0.83
2023-03-15T05:08:15.315Z,0.94
2023-03-15T05:10:41.718Z,0.90
2023-03-15T05:13:08.483Z,0.88
2023-03-15T05:15:34.905Z,0.87
2023-03-15T05:18:01.431Z,0.93
2023-03-15T05:20:28.155Z,1.06
2023-03-15T05:22:54.678Z,0.96
2023-03-15T05:25:21.258Z,1.02
2023-03-15T05:27:47.682Z,1.11
2023-03-15T05:30:16.120Z,1.14
2023-03-15T05:32:44.653Z,1.07
2023-03-15T05:35:13.258Z,1.10
2023-03-15T05:37:40.238Z,1.02
2023-03-15T05:40:10.335Z,0.87
2023-03-15T05:42:37.014Z,0.85
2023-03-15T05:45:03.732Z,0.81
2023-03-15T05:47:30.634Z,0.73
2023-03-15T05:49:58.236Z,0.81
2023-03-15T05:52:24.666Z,0.83
2023-03-15T05:54:51.191Z,0.86
2023-03-15T05:57:17.961Z,0.75
2023-03-15T05:59:44.453Z,0.79
2023-03-15T06:02:11.042Z,0.91
2023-03-15T06:04:38.034Z,0.85
2023-03-15T06:07:05.109Z,0.89
2023-03-15T06:09:31.897Z,0.92
2023-03-15T06:11:59.120Z,0.94
2023-03-15T06:14:26.912Z,1.01
2023-03-15T06:16:53.750Z,0.93
2023-03-15T06:19:21.363Z,0.87
2023-03-15T06:21:48.328Z,0.90
2023-03-15T06:24:15.348Z,0.91
2023-03-15T06:26:41.778Z,0.88
2023-03-15T06:29:08.433Z,0.93
2023-03-15T06:31:35.146Z,0.88
2023-03-15T06:34:01.902Z,0.89
2023-03-15T06:36:28.380Z,0.87
2023-03-15T06:38:57.449Z,0.90
2023-03-15T06:41:24.020Z,0.95
2023-03-15T06:43:51.846Z,1.08
2023-03-15T06:46:18.374Z,0.97
2023-03-15T06:48:47.075Z,1.01
2023-03-15T06:51:13.801Z,0.95
2023-03-15T06:53:40.308Z,0.95
2023-03-15T06:56:07.244Z,0.98
2023-03-15T06:58:33.748Z,1.07
2023-03-15T07:01:00.227Z,0.98
2023-03-15T07:03:27.256Z,1.03
2023-03-15T07:05:54.850Z,0.99
2023-03-15T07:08:23.458Z,0.94
2023-03-15T07:10:50.985Z,0.90
2023-03-15T07:13:19.097Z,0.93
2023-03-15T07:15:47.637Z,0.92
2023-03-15T07:18:14.320Z,0.92
2023-03-15T07:20:40.880Z,0.92
2023-03-15T07:23:07.312Z,0.92
2023-03-15T07:25:48.231Z,0.92
2023-03-15T07:28:18.754Z,0.97
2023-03-15T07:30:53.377Z,1.04
2023-03-15T07:33:22.461Z,1.05
2023-03-15T07:35:50.774Z,1.02
2023-03-15T07:38:17.707Z,0.95
2023-03-15T07:40:44.446Z,0.89
2023-03-15T07:43:12.560Z,1.01
2023-03-15T07:45:39.198Z,0.97
2023-03-15T07:48:06.019Z,0.85
2023-03-15T07:50:32.539Z,0.88
2023-03-15T07:52:59.103Z,0.94
2023-03-15T07:55:25.917Z,0.97
2023-03-15T07:57:53.364Z,1.01
2023-03-15T08:00:20.400Z,1.06
2023-03-15T08:02:47.059Z,1.11
2023-03-15T08:05:13.456Z,1.18
2023-03-15T08:07:40.126Z,1.33
2023-03-15T08:10:07.320Z,1.61
2023-03-15T08:12:35.059Z,1.72
2023-03-15T08:15:01.604Z,1.93
2023-03-15T08:17:28.353Z,2.14
2023-03-15T08:19:54.883Z,1.90
2023-03-15T08:22:21.307Z,1.78
2023-03-15T08:24:48.103Z,1.84
2023-03-15T08:27:14.722Z,1.80
2023-03-15T08:29:41.284Z,1.71
2023-03-15T08:32:08.368Z,1.63
2023-03-15T08:34:34.990Z,1.72
2023-03-15T08:37:01.515Z,1.64
2023-03-15T08:39:27.932Z,1.64
2023-03-15T08:41:55.507Z,1.64
2023-03-15T08:44:21.900Z,1.53
2023-03-15T08:46:48.429Z,1.54
2023-03-15T08:49:14.832Z,1.56
2023-03-15T08:51:41.362Z,1.51
2023-03-15T08:54:07.986Z,1.71
2023-03-15T08:56:34.929Z,1.80
2023-03-15T08:59:01.609Z,1.83
2023-03-15T09:01:30.166Z,2.04
2023-03-15T09:03:57.166Z,2.08
2023-03-15T09:06:23.711Z,2.13
2023-03-15T09:08:50.678Z,2.19
2023-03-15T09:11:17.071Z,2.33
2023-03-15T09:13:43.499Z,2.50
2023-03-15T09:16:09.875Z,2.69
2023-03-15T09:18:36.734Z,2.63
2023-03-15T09:21:04.974Z,2.79
2023-03-15T09:23:31.959Z,2.99
2023-03-15T09:25:58.676Z,2.97
2023-03-15T09:28:28.904Z,2.94
2023-03-15T09:30:56.586Z,2.95
2023-03-15T09:33:24.142Z,3.02
2023-03-15T09:35:52.213Z,3.06
2023-03-15T09:38:19.991Z,3.03
2023-03-15T09:40:47.147Z,2.90
2023-03-15T09:43:19.556Z,2.98
2023-03-15T09:46:10.729Z,2.94
2023-03-15T09:48:55.555Z,3.08
2023-03-15T09:51:52.247Z,3.05
2023-03-15T09:54:26.506Z,3.06
2023-03-15T09:57:06.854Z,3.15
2023-03-15T09:59:38.122Z,3.15
2023-03-15T10:02:18.020Z,3.19
2023-03-15T10:04:47.824Z,3.27
2023-03-15T10:07:16.524Z,3.34
2023-03-15T10:09:45.938Z,3.36
2023-03-15T10:12:15.391Z,3.31
2023-03-15T10:14:46.853Z,3.19
2023-03-15T10:17:15.706Z,3.21
2023-03-15T10:19:50.616Z,3.22
2023-03-15T10:22:33.885Z,3.24
2023-03-15T10:25:11.583Z,3.42
2023-03-15T10:27:43.649Z,3.32
2023-03-15T10:30:17.935Z,3.32
2023-03-15T10:32:48.107Z,3.35
2023-03-15T10:35:17.122Z,3.48
2023-03-15T10:37:45.369Z,3.62
2023-03-15T10:40:16.735Z,3.73
2023-03-15T10:42:46.740Z,3.73
2023-03-15T10:45:21.497Z,3.63
2023-03-15T10:47:57.516Z,3.64
2023-03-15T10:50:31.484Z,3.54
2023-03-15T10:53:01.527Z,3.70
2023-03-15T10:55:37.635Z,3.70
2023-03-15T10:58:31.785Z,3.81
2023-03-15T11:01:07.300Z,3.91
2023-03-15T11:03:35.414Z,3.85
2023-03-15T11:06:02.677Z,4.02
2023-03-15T11:08:41.700Z,4.10
2023-03-15T11:11:08.946Z,4.13
2023-03-15T11:13:39.331Z,4.16
2023-03-15T11:16:10.107Z,3.89
2023-03-15T11:18:44.509Z,3.79
2023-03-15T11:21:14.535Z,3.55
2023-03-15T11:23:45.528Z,3.49
2023-03-15T11:26:33.009Z,3.79
2023-03-15T11:29:07.974Z,4.45
2023-03-15T11:31:35.855Z,4.79
2023-03-15T11:34:25.318Z,4.81
2023-03-15T11:37:08.022Z,5.04
2023-03-15T11:39:58.838Z,5.32
2023-03-15T11:42:35.689Z,5.35
2023-03-15T11:45:09.316Z,5.11
2023-03-15T11:47:54.672Z,5.00
2023-03-15T11:50:21.218Z,5.14
2023-03-15T11:52:52.784Z,5.21
2023-03-15T11:55:27.743Z,5.35
2023-03-15T11:57:57.123Z,5.08
2023-03-15T12:00:47.113Z,5.05
2023-03-15T12:03:36.373Z,4.94
2023-03-15T12:06:36.639Z,5.21
2023-03-15T12:09:32.309Z,5.16
2023-03-15T12:12:04.901Z,5.08
2023-03-15T12:14:36.851Z,5.07
2023-03-15T12:17:24.791Z,4.98
2023-03-15T12:20:09.005Z,4.83
2023-03-15T12:22:37.522Z,5.16
2023-03-15T12:25:19.162Z,5.13
2023-03-15T12:27:57.912Z,5.35
2023-03-15T12:30:40.662Z,5.57
2023-03-15T12:33:20.476Z,5.57
2023-03-15T12:35:48.774Z,5.56
2023-03-15T12:38:18.990Z,5.57
2023-03-15T12:40:55.797Z,5.48
2023-03-15T12:43:35.973Z,5.39
2023-03-15T12:46:03.083Z,5.40
2023-03-15T12:48:30.954Z,5.47
2023-03-15T12:51:00.196Z,5.50
2023-03-15T12:53:37.177Z,5.28
2023-03-15T12:56:19.287Z,5.27
2023-03-15T12:58:54.356Z,5.20
2023-03-15T13:01:25.521Z,5.18
2023-03-15T13:03:58.366Z,4.98
2023-03-15T13:06:36.991Z,4.91
2023-03-15T13:09:29.518Z,5.12
2023-03-15T13:12:44.812Z,5.43
2023-03-15T13:15:42.913Z,5.64
2023-03-15T13:18:18.447Z,5.95
2023-03-15T13:21:07.884Z,6.30
2023-03-15T13:23:34.936Z,6.48
2023-03-15T13:26:35.473Z,6.09
2023-03-15T13:29:17.496Z,6.24
2023-03-15T13:31:45.268Z,6.11
2023-03-15T13:34:15.973Z,6.64
2023-03-15T13:36:53.346Z,7.00
2023-03-15T13:39:25.795Z,6.81
2023-03-15T13:42:19.889Z,6.89
2023-03-15T13:44:46.313Z,6.79
2023-03-15T13:47:23.929Z,6.62
2023-03-15T13:49:52.825Z,7.00
2023-03-15T13:52:19.747Z,7.09
2023-03-15T13:54:46.623Z,7.47
2023-03-15T13:57:19.162Z,7.05
2023-03-15T14:00:00.735Z,6.92
2023-03-15T14:02:45.735Z,7.13
2023-03-15T14:05:18.850Z,6.88
2023-03-15T14:07:48.413Z,6.80
2023-03-15T14:10:27.759Z,6.74
2023-03-15T14:12:57.349Z,6.61
2023-03-15T14:15:35.804Z,6.61
2023-03-15T14:18:17.098Z,6.95
2023-03-15T14:20:53.470Z,6.72
2023-03-15T14:23:24.242Z,6.20
2023-03-15T14:25:53.349Z,6.18
2023-03-15T14:28:20.539Z,6.36
2023-03-15T14:30:56.216Z,6.18
2023-03-15T14:33:40.675Z,6.11
2023-03-15T14:36:29.080Z,6.08
2023-03-15T14:38:57.697Z,5.95
2023-03-15T14:41:27.382Z,6.36
2023-03-15T14:43:54.333Z,6.56
2023-03-15T14:46:21.045Z,6.46
2023-03-15T14:48:50.151Z,6.46
2023-03-15T14:51:20.467Z,6.47
2023-03-15T14:53:51.075Z,6.54
2023-03-15T14:56:19.758Z,6.55
2023-03-15T14:58:46.607Z,6.70
2023-03-15T15:01:17.851Z,6.81
2023-03-15T15:03:58.279Z,6.84
2023-03-15T15:06:27.610Z,6.76
2023-03-15T15:08:57.268Z,6.73
2023-03-15T15:11:24.076Z,6.72
2023-03-15T15:13:50.699Z,6.61
2023-03-15T15:16:17.603Z,6.61
2023-03-15T15:18:45.244Z,6.68
2023-03-15T15:21:19.592Z,6.70
2023-03-15T15:23:58.027Z,6.70
2023-03-15T15:26:27.877Z,6.52
2023-03-15T15:28:55.388Z,6.58
2023-03-15T15:31:23.763Z,6.49
2023-03-15T15:33:55.099Z,6.58
2023-03-15T15:36:26.485Z,6.63
2023-03-15T15:38:53.173Z,6.46
2023-03-15T15:41:24.376Z,6.50
2023-03-15T15:43:51.537Z,6.27
2023-03-15T15:46:18.592Z,6.22
2023-03-15T15:48:45.209Z,6.18
2023-03-15T15:51:18.069Z,6.26
2023-03-15T15:53:44.499Z,6.16
2023-03-15T15:56:14.590Z,6.15
2023-03-15T15:58:42.729Z,6.07
2023-03-15T16:01:16.156Z,5.94
2023-03-15T16:03:43.479Z,5.90
2023-03-15T16:06:21.053Z,6.07
2023-03-15T16:08:50.647Z,6.00
2023-03-15T16:11:18.366Z,5.84
2023-03-15T16:13:46.092Z,5.91
2023-03-15T16:16:15.350Z,5.99
2023-03-15T16:18:43.010Z,5.89
2023-03-15T16:21:27.461Z,5.84
2023-03-15T16:24:03.357Z,5.77
2023-03-15T16:26:30.020Z,5.74
2023-03-15T16:28:56.751Z,5.72
2023-03-15T16:31:23.464Z,5.58
2023-03-15T16:33:50.362Z,5.61
2023-03-15T16:36:22.386Z,5.44
2023-03-15T16:38:49.194Z,5.37
2023-03-15T16:41:16.954Z,5.43
2023-03-15T16:43:43.945Z,5.35
2023-03-15T16:46:19.432Z,5.29
2023-03-15T16:48:45.909Z,5.18
2023-03-15T16:51:15.506Z,5.13
2023-03-15T16:53:44.585Z,4.99
2023-03-15T16:56:13.466Z,4.83
2023-03-15T16:58:42.360Z,4.75
2023-03-15T17:01:10.509Z,4.66
2023-03-15T17:03:36.924Z,4.51
2023-03-15T17:06:03.654Z,4.36
2023-03-15T17:08:30.062Z,4.17
2023-03-15T17:10:56.574Z,4.08
2023-03-15T17:13:28.078Z,3.98
2023-03-15T17:15:54.968Z,3.83
2023-03-15T17:18:22.658Z,3.66
2023-03-15T17:20:50.258Z,3.47
2023-03-15T17:23:17.701Z,3.33
2023-03-15T17:25:44.236Z,3.14
2023-03-15T17:28:11.938Z,3.05
2023-03-15T17:30:38.574Z,2.94
2023-03-15T17:33:05.563Z,2.77
2023-03-15T17:35:49.241Z,2.64
2023-03-15T17:38:24.190Z,2.48
2023-03-15T17:40:51.279Z,2.39
2023-03-15T17:43:17.759Z,2.27
2023-03-15T17:45:44.945Z,2.11
2023-03-15T17:48:12.209Z,1.96
2023-03-15T17:50:43.077Z,1.81
2023-03-15T17:53:16.843Z,1.77
2023-03-15T17:55:44.128Z,1.74
2023-03-15T17:58:16.543Z,1.68
2023-03-15T18:00:43.494Z,1.61
2023-03-15T18:03:13.730Z,1.57
2023-03-15T18:05:40.576Z,1.52
2023-03-15T18:08:10.955Z,1.39
2023-03-15T18:10:41.483Z,1.31
2023-03-15T18:13:12.928Z,1.24
2023-03-15T18:15:39.498Z,1.25
2023-03-15T18:18:06.565Z,1.15
2023-03-15T18:20:33.396Z,1.12
2023-03-15T18:23:00.001Z,1.14
2023-03-15T18:25:29.940Z,1.07
2023-03-15T18:27:57.193Z,1.02
2023-03-15T18:30:25.672Z,1.02
2023-03-15T18:32:53.806Z,0.94
2023-03-15T18:35:30.325Z,0.83
2023-03-15T18:37:57.718Z,0.80
2023-03-15T18:40:27.322Z,0.69
2023-03-15T18:42:54.944Z,0.63
2023-03-15T18:45:28.954Z,0.57
2023-03-15T18:47:55.415Z,0.54
2023-03-15T18:50:21.871Z,0.51
2023-03-15T18:52:48.787Z,0.48
2023-03-15T18:55:17.294Z,0.45
2023-03-15T18:57:45.964Z,0.39
2023-03-15T19:00:15.975Z,0.32
2023-03-15T19:02:44.922Z,0.28
2023-03-15T19:05:13.411Z,0.25
2023-03-15T19:07:41.909Z,0.20
2023-03-15T19:10:13.462Z,0.16
2023-03-15T19:12:40.824Z,0.16
2023-03-15T19:15:13.183Z,0.15
2023-03-15T19:17:39.559Z,0.21
2023-03-15T19:20:12.312Z,0.33
2023-03-15T19:22:39.551Z,0.39
2023-03-15T19:25:06.868Z,0.45
2023-03-15T19:27:33.404Z,0.55
2023-03-15T19:29:59.796Z,0.56
2023-03-15T19:32:27.304Z,0.61
2023-03-15T19:34:53.848Z,0.59
2023-03-15T19:37:20.425Z,0.60
2023-03-15T19:39:47.352Z,0.61
2023-03-15T19:42:13.783Z,0.58
2023-03-15T19:44:43.571Z,0.58
2023-03-15T19:47:10.426Z,0.61
2023-03-15T19:49:36.936Z,0.61
2023-03-15T19:52:03.419Z,0.67
2023-03-15T19:54:33.762Z,0.64
2023-03-15T19:57:00.843Z,0.72
2023-03-15T19:59:27.675Z,0.73
2023-03-15T20:01:54.221Z,0.71
2023-03-15T20:04:22.298Z,0.75
2023-03-15T20:06:48.698Z,0.75
2023-03-15T20:09:15.065Z,0.73
2023-03-15T20:11:42.100Z,0.68
2023-03-15T20:14:08.564Z,0.65
2023-03-15T20:16:35.139Z,0.59
2023-03-15T20:19:01.552Z,0.47
2023-03-15T20:21:29.493Z,0.42
2023-03-15T20:23:56.204Z,0.38
2023-03-15T20:26:25.005Z,0.34
2023-03-15T20:28:52.807Z,0.27
2023-03-15T20:31:19.572Z,0.21
2023-03-15T20:33:49.330Z,0.20
2023-03-15T20:36:16.784Z,0.14
2023-03-15T20:38:44.354Z,0.08
2023-03-15T20:41:13.697Z,0.09
2023-03-15T20:43:41.281Z,0.10
2023-03-15T20:46:09.954Z,0.06
2023-03-15T20:48:36.991Z,0.03
2023-03-15T20:51:04.528Z,0.02
2023-03-15T20:53:33.434Z,-0.04
2023-03-15T20:56:00.166Z,-0.03
2023-03-15T20:58:26.836Z,-0.08
2023-03-15T21:01:04.041Z,-0.05
2023-03-15T21:03:33.743Z,-0.08
2023-03-15T21:06:01.635Z,-0.12
2023-03-15T21:08:28.203Z,-0.12
2023-03-15T21:10:55.478Z,-0.12
2023-03-15T21:13:22.587Z,-0.13
2023-03-15T21:15:51.780Z,-0.10
2023-03-15T21:18:21.864Z,-0.06
2023-03-15T21:21:06.522Z,-0.07
2023-03-15T21:23:34.223Z,-0.04
2023-03-15T21:26:05.452Z,-0.04
2023-03-15T21:28:32.907Z,-0.02
2023-03-15T21:30:59.362Z,0.03
2023-03-15T21:33:28.342Z,0.10
2023-03-15T21:35:56.407Z,0.12
2023-03-15T21:38:22.905Z,0.20
2023-03-15T21:40:59.682Z,0.32
2023-03-15T21:43:28.603Z,0.39
2023-03-15T21:45:58.518Z,0.47
2023-03-15T21:48:24.962Z,0.47
2023-03-15T21:50:54.846Z,0.52
2023-03-15T21:53:22.339Z,0.61
2023-03-15T21:55:48.789Z,0.63
2023-03-15T21:58:15.636Z,0.63
2023-03-15T22:00:42.766Z,0.60
2023-03-15T22:03:09.176Z,0.60
2023-03-15T22:05:36.401Z,0.69
2023-03-15T22:08:03.138Z,0.66
2023-03-15T22:10:30.229Z,0.63
2023-03-15T22:12:56.617Z,0.60
2023-03-15T22:15:23.238Z,0.55
2023-03-15T22:17:51.264Z,0.61
2023-03-15T22:20:18.308Z,0.60
2023-03-15T22:22:46.464Z,0.55
2023-03-15T22:25:13.793Z,0.50
2023-03-15T22:27:42.192Z,0.46
2023-03-15T22:30:10.402Z,0.52
2023-03-15T22:32:37.240Z,0.58
2023-03-15T22:35:04.035Z,0.54
2023-03-15T22:37:33.899Z,0.56
2023-03-15T22:40:01.021Z,0.50
2023-03-15T22:42:27.678Z,0.55
2023-03-15T22:44:54.114Z,0.50
2023-03-15T22:47:20.517Z,0.46
2023-03-15T22:49:47.027Z,0.50
2023-03-15T22:52:13.435Z,0.46
2023-03-15T22:54:43.397Z,0.48
2023-03-15T22:57:11.281Z,0.39
2023-03-15T22:59:38.741Z,0.40
2023-03-15T23:02:05.395Z,0.35
2023-03-15T23:04:32.045Z,0.36
2023-03-15T23:06:58.503Z,0.39
2023-03-15T23:09:24.959Z,0.44
2023-03-15T23:11:51.995Z,0.52
2023-03-15T23:14:18.421Z,0.46
2023-03-15T23:16:45.300Z,0.46
2023-03-15T23:19:13.349Z,0.46
2023-03-15T23:21:40.323Z,0.51
2023-03-15T23:24:07.550Z,0.46
2023-03-15T23:26:37.529Z,0.47
2023-03-15T23:29:10.602Z,0.41
2023-03-15T23:31:41.897Z,0.37
2023-03-15T23:34:09.042Z,0.34
2023-03-15T23:36:35.942Z,0.26
2023-03-15T23:39:02.419Z,0.25
2023-03-15T23:41:29.132Z,0.18
2023-03-15T23:43:55.580Z,0.22
2023-03-15T23:46:23.944Z,0.15
2023-03-15T23:48:52.210Z,0.20
2023-03-15T23:51:19.640Z,0.18
2023-03-15T23:53:46.055Z,0.17
2023-03-15T23:56:12.640Z,0.15
2023-03-15T23:58:39.489Z,0.09
